createdAt,value
2023-04-05T00:01:28.794Z,97.80
2023-04-05T00:03:56.828Z,97.90
2023-04-05T00:06:28.835Z,98.10
2023-04-05T00:08:57.180Z,98.30
2023-04-05T00:11:24.839Z,98.60
2023-04-05T00:13:51.937Z,98.70
2023-04-05T00:16:20.479Z,98.70
2023-04-05T00:18:51.620Z,98.80
2023-04-05T00:21:21.671Z,99.00
2023-04-05T00:23:51.416Z,99.20
2023-04-05T00:26:19.097Z,99.40
2023-04-05T00:28:49.049Z,99.50
2023-04-05T00:31:16.407Z,99.40
2023-04-05T00:33:43.654Z,99.40
2023-04-05T00:36:14.674Z,99.60
2023-04-05T00:38:42.074Z,99.80
2023-04-05T00:41:09.492Z,99.90
2023-04-05T00:43:36.877Z,99.90
2023-04-05T00:46:04.591Z,99.90
2023-04-05T00:48:31.816Z,99.90
2023-04-05T00:50:59.232Z,99.90
2023-04-05T00:53:29.258Z,99.90
2023-04-05T00:55:56.844Z,99.90
2023-04-05T00:58:24.398Z,99.90
2023-04-05T01:01:03.761Z,99.90
2023-04-05T01:03:31.820Z,99.90
2023-04-05T01:06:04.712Z,99.90
2023-04-05T01:08:34.184Z,99.90
2023-04-05T01:11:01.763Z,99.90
2023-04-05T01:13:31.971Z,99.90
2023-04-05T01:15:59.148Z,99.90
2023-04-05T01:18:26.961Z,99.90
2023-04-05T01:21:07.574Z,99.90
2023-04-05T01:23:38.502Z,99.90
2023-04-05T01:26:06.071Z,99.90
2023-04-05T01:28:52.502Z,99.90
2023-04-05T01:31:23.932Z,99.90
2023-04-05T01:34:20.789Z,99.90
2023-04-05T01:36:54.769Z,99.90
2023-04-05T01:39:21.905Z,99.90
2023-04-05T01:41:49.066Z,99.90
2023-04-05T01:44:16.253Z,99.90
2023-04-05T01:46:43.506Z,99.90
2023-04-05T01:49:10.668Z,99.90
2023-04-05T01:51:41.959Z,99.90
2023-04-05T01:54:09.353Z,99.90
2023-04-05T01:56:36.500Z,99.90
2023-04-05T01:59:04.320Z,99.90
2023-04-05T02:01:32.242Z,99.90
2023-04-05T02:03:59.519Z,99.90
2023-04-05T02:06:27.326Z,99.90
2023-04-05T02:08:54.450Z,99.90
2023-04-05T02:11:21.661Z,99.90
2023-04-05T02:13:48.901Z,99.90
2023-04-05T02:16:16.644Z,99.90
2023-04-05T02:18:50.650Z,99.90
2023-04-05T02:21:17.892Z,99.90
2023-04-05T02:23:45.083Z,99.90
2023-04-05T02:26:12.250Z,99.90
2023-04-05T02:28:39.458Z,99.90
2023-04-05T02:31:11.115Z,99.90
2023-04-05T02:33:38.508Z,99.90
2023-04-05T02:36:06.736Z,99.90
2023-04-05T02:38:34.118Z,99.90
2023-04-05T02:41:01.336Z,99.90
2023-04-05T02:43:28.566Z,99.90
2023-04-05T02:45:55.747Z,99.90
2023-04-05T02:48:23.953Z,99.90
2023-04-05T02:50:52.041Z,99.90
2023-04-05T02:53:19.801Z,99.90
2023-04-05T02:55:54.923Z,99.90
2023-04-05T02:58:22.529Z,99.90
2023-04-05T03:00:51.404Z,99.90
2023-04-05T03:03:23.095Z,99.90
2023-04-05T03:05:57.699Z,99.90
2023-04-05T03:08:24.906Z,99.90
2023-04-05T03:11:00.967Z,99.90
2023-04-05T03:13:28.694Z,99.90
2023-04-05T03:15:56.531Z,99.90
2023-04-05T03:18:26.735Z,99.90
2023-04-05T03:20:58.250Z,99.90
2023-04-05T03:23:27.262Z,99.90
2023-04-05T03:25:56.199Z,99.90
2023-04-05T03:28:26.216Z,99.90
2023-04-05T03:30:56.788Z,99.90
2023-04-05T03:33:24.089Z,99.90
2023-04-05T03:35:53.059Z,99.90
2023-04-05T03:38:21.437Z,99.90
2023-04-05T03:41:06.860Z,99.90
2023-04-05T03:43:35.366Z,99.90
2023-04-05T03:46:02.632Z,99.90
2023-04-05T03:48:30.844Z,99.90
2023-04-05T03:50:58.785Z,99.90
2023-04-05T03:53:26.434Z,99.90
2023-04-05T03:55:56.581Z,99.90
2023-04-05T03:58:44.493Z,99.90
2023-04-05T04:01:13.010Z,99.90
2023-04-05T04:03:40.549Z,99.90
2023-04-05T04:06:07.908Z,99.90
2023-04-05T04:08:35.377Z,99.90
2023-04-05T04:11:02.545Z,99.90
2023-04-05T04:13:34.053Z,99.90
2023-04-05T04:16:06.636Z,99.90
2023-04-05T04:18:54.263Z,99.90
2023-04-05T04:21:27.046Z,99.90
2023-04-05T04:24:01.822Z,99.90
2023-04-05T04:26:47.190Z,99.90
2023-04-05T04:29:31.085Z,99.90
2023-04-05T04:32:50.675Z,99.90
2023-04-05T04:35:40.435Z,99.90
2023-04-05T04:38:27.461Z,99.90
2023-04-05T04:41:02.680Z,99.90
2023-04-05T04:43:44.749Z,99.90
2023-04-05T04:46:42.795Z,99.90
2023-04-05T04:49:17.116Z,99.90
2023-04-05T04:51:50.975Z,99.90
2023-04-05T04:54:20.998Z,99.90
2023-04-05T04:56:49.315Z,99.90
2023-04-05T04:59:16.546Z,99.90
2023-04-05T05:01:46.836Z,99.90
2023-04-05T05:04:13.980Z,99.90
2023-04-05T05:06:42.409Z,99.90
2023-04-05T05:09:09.621Z,99.90
2023-04-05T05:11:45.705Z,99.90
2023-04-05T05:14:13.607Z,99.90
2023-04-05T05:16:40.723Z,99.90
2023-04-05T05:19:08.251Z,99.90
2023-04-05T05:21:43.972Z,99.90
2023-04-05T05:24:11.159Z,99.90
2023-04-05T05:26:39.307Z,99.90
2023-04-05T05:29:06.425Z,99.90
2023-04-05T05:31:37.230Z,99.90
2023-04-05T05:34:04.532Z,99.90
2023-04-05T05:36:31.908Z,99.90
2023-04-05T05:38:59.167Z,99.90
2023-04-05T05:41:26.377Z,99.90
2023-04-05T05:43:53.814Z,99.90
2023-04-05T05:46:21.333Z,99.90
2023-04-05T05:48:48.472Z,99.90
2023-04-05T05:51:16.863Z,99.90
2023-04-05T05:53:44.272Z,99.90
2023-04-05T05:56:11.407Z,99.90
2023-04-05T05:58:38.947Z,99.90
2023-04-05T06:01:06.753Z,99.90
2023-04-05T06:03:34.001Z,99.90
2023-04-05T06:06:03.231Z,99.90
2023-04-05T06:08:30.449Z,99.90
2023-04-05T06:10:57.629Z,99.90
2023-04-05T06:13:24.833Z,99.90
2023-04-05T06:15:51.937Z,99.90
2023-04-05T06:18:21.452Z,99.90
2023-04-05T06:20:48.587Z,99.90
2023-04-05T06:23:16.074Z,99.90
2023-04-05T06:25:43.227Z,99.90
2023-04-05T06:28:10.474Z,99.90
2023-04-05T06:30:37.672Z,99.90
2023-04-05T06:33:04.809Z,99.90
2023-04-05T06:35:32.097Z,99.90
2023-04-05T06:37:59.223Z,99.90
2023-04-05T06:40:26.346Z,99.90
2023-04-05T06:42:53.438Z,99.90
2023-04-05T06:45:24.702Z,99.90
2023-04-05T06:47:51.922Z,99.90
2023-04-05T06:50:19.023Z,99.90
2023-04-05T06:52:48.270Z,99.90
2023-04-05T06:55:15.463Z,99.90
2023-04-05T06:57:42.645Z,99.90
2023-04-05T07:00:13.282Z,99.90
2023-04-05T07:02:40.617Z,99.90
2023-04-05T07:05:08.918Z,99.90
2023-04-05T07:07:40.675Z,99.90
2023-04-05T07:10:08.014Z,99.90
2023-04-05T07:12:35.222Z,99.90
2023-04-05T07:15:02.458Z,99.90
2023-04-05T07:17:29.676Z,99.90
2023-04-05T07:19:56.777Z,99.90
2023-04-05T07:22:23.881Z,99.90
2023-04-05T07:24:52.400Z,99.90
2023-04-05T07:27:19.487Z,99.90
2023-04-05T07:29:48.356Z,99.90
2023-04-05T07:32:15.660Z,99.90
2023-04-05T07:34:42.764Z,99.90
2023-04-05T07:37:09.887Z,99.90
2023-04-05T07:39:50.115Z,99.90
2023-04-05T07:42:18.952Z,99.20
2023-04-05T07:44:46.256Z,98.10
2023-04-05T07:47:15.474Z,98.20
2023-04-05T07:49:42.544Z,97.60
2023-04-05T07:52:09.627Z,97.00
2023-04-05T07:54:39.644Z,97.50
2023-04-05T07:57:07.382Z,95.80
2023-04-05T07:59:34.579Z,95.30
2023-04-05T08:02:08.658Z,96.00
2023-04-05T08:04:43.238Z,96.70
2023-04-05T08:07:10.325Z,95.00
2023-04-05T08:09:37.371Z,95.40
2023-04-05T08:12:11.309Z,95.10
2023-04-05T08:14:38.408Z,95.30
2023-04-05T08:17:05.619Z,94.80
2023-04-05T08:19:32.871Z,94.80
2023-04-05T08:21:59.966Z,94.60
2023-04-05T08:24:27.103Z,94.40
2023-04-05T08:26:54.326Z,93.70
2023-04-05T08:29:21.372Z,94.50
2023-04-05T08:31:48.540Z,94.70
2023-04-05T08:34:15.733Z,95.20
2023-04-05T08:36:42.969Z,92.50
2023-04-05T08:39:10.675Z,92.00
2023-04-05T08:41:40.910Z,91.60
2023-04-05T08:44:09.403Z,91.70
2023-04-05T08:46:36.491Z,91.50
2023-04-05T08:49:33.358Z,91.60
2023-04-05T08:52:00.503Z,92.50
2023-04-05T08:54:27.589Z,92.10
2023-04-05T08:56:54.657Z,91.20
2023-04-05T08:59:21.772Z,90.00
2023-04-05T09:01:49.190Z,88.00
2023-04-05T09:04:21.174Z,89.80
2023-04-05T09:06:49.432Z,89.50
2023-04-05T09:09:17.063Z,84.60
2023-04-05T09:11:44.283Z,87.30
2023-04-05T09:14:11.660Z,90.00
2023-04-05T09:16:39.517Z,87.10
2023-04-05T09:19:06.781Z,81.50
2023-04-05T09:21:52.871Z,82.90
2023-04-05T09:24:37.055Z,83.30
2023-04-05T09:27:11.402Z,85.80
2023-04-05T09:29:40.571Z,83.40
2023-04-05T09:32:08.565Z,82.20
2023-04-05T09:34:38.754Z,82.00
2023-04-05T09:37:13.395Z,81.00
2023-04-05T09:39:40.624Z,78.00
2023-04-05T09:42:07.728Z,76.80
2023-04-05T09:44:53.586Z,79.40
2023-04-05T09:47:22.113Z,80.80
2023-04-05T09:49:53.326Z,79.40
2023-04-05T09:52:21.022Z,80.30
2023-04-05T09:54:48.188Z,76.40
2023-04-05T09:57:18.973Z,78.30
2023-04-05T09:59:46.626Z,79.20
2023-04-05T10:02:13.872Z,77.40
2023-04-05T10:04:41.950Z,77.50
2023-04-05T10:07:10.279Z,78.50
2023-04-05T10:09:37.379Z,78.20
2023-04-05T10:12:04.547Z,78.50
2023-04-05T10:14:31.626Z,77.80
2023-04-05T10:17:08.416Z,76.70
2023-04-05T10:19:55.379Z,74.10
2023-04-05T10:22:48.746Z,76.40
2023-04-05T10:25:15.876Z,72.90
2023-04-05T10:27:47.365Z,75.90
2023-04-05T10:30:14.752Z,77.80
2023-04-05T10:33:01.690Z,77.20
2023-04-05T10:35:31.360Z,78.70
2023-04-05T10:38:21.795Z,76.40
2023-04-05T10:40:48.964Z,76.50
2023-04-05T10:43:19.417Z,77.80
2023-04-05T10:45:47.242Z,77.20
2023-04-05T10:48:33.155Z,76.70
2023-04-05T10:51:00.321Z,77.50
2023-04-05T10:53:27.515Z,76.90
2023-04-05T10:55:54.567Z,75.20
2023-04-05T10:58:21.673Z,77.20
2023-04-05T11:00:49.634Z,74.40
2023-04-05T11:03:35.741Z,75.90
2023-04-05T11:06:18.075Z,75.70
2023-04-05T11:08:46.280Z,75.80
2023-04-05T11:11:14.267Z,74.50
2023-04-05T11:13:51.360Z,73.30
2023-04-05T11:16:18.576Z,70.40
2023-04-05T11:18:46.990Z,71.30
2023-04-05T11:21:23.997Z,70.60
2023-04-05T11:24:01.506Z,74.20
2023-04-05T11:26:32.438Z,72.50
2023-04-05T11:28:59.594Z,71.70
2023-04-05T11:31:27.076Z,70.20
2023-04-05T11:34:00.041Z,73.20
2023-04-05T11:36:33.844Z,72.80
2023-04-05T11:39:19.716Z,68.10
2023-04-05T11:41:47.165Z,71.80
2023-04-05T11:44:14.451Z,70.80
2023-04-05T11:46:46.024Z,71.60
2023-04-05T11:49:13.293Z,74.70
2023-04-05T11:51:42.526Z,71.80
2023-04-05T11:54:09.934Z,69.10
2023-04-05T11:56:38.000Z,69.80
2023-04-05T11:59:05.094Z,71.20
2023-04-05T12:01:32.179Z,70.10
2023-04-05T12:03:59.472Z,70.30
2023-04-05T12:06:26.709Z,69.10
2023-04-05T12:08:55.918Z,67.00
2023-04-05T12:11:27.183Z,66.60
2023-04-05T12:13:55.227Z,68.80
2023-04-05T12:16:22.359Z,69.00
2023-04-05T12:18:53.210Z,67.90
2023-04-05T12:21:20.331Z,68.00
2023-04-05T12:23:47.709Z,71.30
2023-04-05T12:26:14.754Z,67.30
2023-04-05T12:29:12.277Z,67.10
2023-04-05T12:31:49.256Z,66.60
2023-04-05T12:34:47.309Z,65.00
2023-04-05T12:37:14.446Z,67.90
2023-04-05T12:39:41.546Z,66.40
2023-04-05T12:42:08.565Z,67.30
2023-04-05T12:44:36.183Z,69.60
2023-04-05T12:47:03.519Z,68.30
2023-04-05T12:49:35.014Z,68.20
2023-04-05T12:52:03.208Z,72.50
2023-04-05T12:54:32.087Z,69.60
2023-04-05T12:57:01.448Z,69.40
2023-04-05T12:59:28.667Z,72.90
2023-04-05T13:01:56.825Z,71.80
2023-04-05T13:04:24.249Z,70.60
2023-04-05T13:06:56.383Z,69.10
2023-04-05T13:09:23.445Z,72.00
2023-04-05T13:11:50.904Z,68.80
2023-04-05T13:14:18.033Z,63.70
2023-04-05T13:16:46.158Z,64.20
2023-04-05T13:19:13.240Z,62.60
2023-04-05T13:21:41.284Z,64.20
2023-04-05T13:24:10.191Z,64.40
2023-04-05T13:26:38.757Z,64.00
2023-04-05T13:29:05.843Z,64.70
2023-04-05T13:31:33.815Z,63.30
2023-04-05T13:34:01.002Z,65.50
2023-04-05T13:36:28.193Z,64.10
2023-04-05T13:38:56.226Z,65.30
2023-04-05T13:41:23.337Z,66.50
2023-04-05T13:43:50.681Z,66.20
2023-04-05T13:46:17.817Z,67.60
2023-04-05T13:48:44.863Z,67.50
2023-04-05T13:51:11.866Z,64.00
2023-04-05T13:53:38.993Z,66.70
2023-04-05T13:56:06.894Z,67.40
2023-04-05T13:58:34.015Z,62.50
2023-04-05T14:01:01.418Z,67.10
2023-04-05T14:03:30.679Z,69.10
2023-04-05T14:05:57.961Z,68.10
2023-04-05T14:08:25.138Z,66.20
2023-04-05T14:10:52.230Z,62.70
2023-04-05T14:13:19.340Z,62.00
2023-04-05T14:15:46.628Z,63.30
2023-04-05T14:18:14.814Z,64.70
2023-04-05T14:20:42.201Z,65.10
2023-04-05T14:23:09.559Z,66.30
2023-04-05T14:25:36.818Z,62.30
2023-04-05T14:28:04.004Z,61.10
2023-04-05T14:30:31.278Z,62.30
2023-04-05T14:32:58.563Z,61.90
2023-04-05T14:35:28.829Z,60.90
2023-04-05T14:37:55.965Z,61.50
2023-04-05T14:40:23.236Z,62.40
2023-04-05T14:42:50.678Z,61.50
2023-04-05T14:45:32.139Z,61.70
2023-04-05T14:47:59.698Z,62.60
2023-04-05T14:50:26.906Z,61.40
2023-04-05T14:52:54.046Z,62.00
2023-04-05T14:55:21.130Z,62.20
2023-04-05T14:57:48.281Z,63.30
2023-04-05T15:00:15.540Z,61.70
2023-04-05T15:02:42.814Z,63.30
2023-04-05T15:05:10.268Z,63.40
2023-04-05T15:07:37.419Z,61.10
2023-04-05T15:10:04.894Z,62.30
2023-04-05T15:12:32.189Z,64.10
2023-04-05T15:14:59.278Z,64.70
2023-04-05T15:17:26.494Z,67.50
2023-04-05T15:19:53.702Z,67.30
2023-04-05T15:22:23.414Z,66.10
2023-04-05T15:24:50.629Z,65.50
2023-04-05T15:27:18.877Z,65.00
2023-04-05T15:29:46.166Z,64.30
2023-04-05T15:32:13.322Z,62.40
2023-04-05T15:34:41.220Z,60.90
2023-04-05T15:37:09.153Z,63.80
2023-04-05T15:40:03.684Z,64.60
2023-04-05T15:42:31.314Z,61.70
2023-04-05T15:48:34.438Z,63.10
2023-04-05T15:51:01.585Z,64.80
2023-04-05T15:53:31.645Z,64.80
2023-04-05T15:55:58.753Z,65.10
2023-04-05T15:58:25.859Z,66.30
2023-04-05T16:00:52.991Z,66.10
2023-04-05T16:03:20.434Z,65.60
2023-04-05T16:05:47.583Z,64.20
2023-04-05T16:08:17.694Z,66.80
2023-04-05T16:10:45.007Z,69.60
2023-04-05T16:13:12.247Z,69.70
2023-04-05T16:15:40.453Z,68.10
2023-04-05T16:18:09.366Z,69.10
2023-04-05T16:21:21.884Z,68.10
2023-04-05T16:23:48.978Z,65.70
2023-04-05T16:26:16.299Z,64.00
2023-04-05T16:28:43.487Z,64.80
2023-04-05T16:31:12.660Z,62.90
2023-04-05T16:33:39.778Z,63.90
2023-04-05T16:36:21.548Z,64.40
2023-04-05T16:38:48.874Z,67.80
2023-04-05T16:41:17.021Z,68.20
2023-04-05T16:43:44.123Z,68.50
2023-04-05T16:46:11.553Z,69.50
2023-04-05T16:48:39.605Z,68.80
2023-04-05T16:51:31.957Z,68.90
2023-04-05T16:53:59.197Z,66.50
2023-04-05T16:56:26.350Z,68.30
2023-04-05T16:58:53.526Z,68.80
2023-04-05T17:01:20.939Z,69.00
2023-04-05T17:03:48.176Z,69.70
2023-04-05T17:06:15.830Z,67.30
2023-04-05T17:08:42.970Z,67.80
2023-04-05T17:11:10.094Z,68.30
2023-04-05T17:13:37.177Z,69.10
2023-04-05T17:16:04.335Z,69.90
2023-04-05T17:18:31.454Z,69.10
2023-04-05T17:20:58.500Z,70.00
2023-04-05T17:23:25.608Z,68.90
2023-04-05T17:25:52.728Z,69.90
2023-04-05T17:28:19.866Z,72.10
2023-04-05T17:30:47.258Z,73.10
2023-04-05T17:33:14.528Z,73.30
2023-04-05T17:35:41.975Z,73.20
2023-04-05T17:38:09.769Z,72.00
2023-04-05T17:40:36.881Z,71.80
2023-04-05T17:43:03.963Z,71.60
2023-04-05T17:45:31.110Z,71.60
2023-04-05T17:47:58.335Z,72.40
2023-04-05T17:50:25.578Z,72.50
2023-04-05T17:52:52.703Z,71.70
2023-04-05T17:55:19.837Z,70.80
2023-04-05T17:57:46.963Z,71.20
2023-04-05T18:00:14.372Z,71.60
2023-04-05T18:02:41.583Z,72.10
2023-04-05T18:05:10.096Z,72.50
2023-04-05T18:07:37.576Z,73.10
2023-04-05T18:10:05.066Z,73.80
2023-04-05T18:12:32.738Z,74.00
2023-04-05T18:14:59.927Z,73.70
2023-04-05T18:17:28.154Z,73.70
2023-04-05T18:19:55.373Z,74.40
2023-04-05T18:22:22.739Z,75.30
2023-04-05T18:24:49.837Z,76.20
2023-04-05T18:27:16.972Z,76.70
2023-04-05T18:29:44.134Z,77.10
2023-04-05T18:32:11.290Z,76.40
2023-04-05T18:34:38.409Z,77.20
2023-04-05T18:37:05.589Z,77.80
2023-04-05T18:39:32.636Z,78.20
2023-04-05T18:41:59.831Z,78.50
2023-04-05T18:44:26.967Z,78.90
2023-04-05T18:46:54.100Z,79.40
2023-04-05T18:49:21.276Z,78.00
2023-04-05T18:51:48.881Z,78.50
2023-04-05T18:54:18.458Z,79.00
2023-04-05T18:56:45.966Z,78.00
2023-04-05T18:59:13.162Z,79.10
2023-04-05T19:01:40.501Z,79.60
2023-04-05T19:04:07.678Z,80.00
2023-04-05T19:06:34.989Z,80.10
2023-04-05T19:09:02.105Z,80.30
2023-04-05T19:11:29.181Z,80.40
2023-04-05T19:13:56.527Z,80.40
2023-04-05T19:16:23.667Z,80.50
2023-04-05T19:18:50.827Z,80.60
2023-04-05T19:21:17.956Z,80.60
2023-04-05T19:23:45.198Z,80.60
2023-04-05T19:26:12.276Z,80.90
2023-04-05T19:28:39.330Z,80.90
2023-04-05T19:31:06.529Z,80.90
2023-04-05T19:33:33.956Z,80.80
2023-04-05T19:36:01.294Z,81.00
2023-04-05T19:38:28.462Z,81.40
2023-04-05T19:40:56.335Z,81.70
2023-04-05T19:43:26.992Z,81.70
2023-04-05T19:45:58.229Z,81.80
2023-04-05T19:48:33.980Z,82.00
2023-04-05T19:51:01.121Z,82.00
2023-04-05T19:53:49.674Z,82.50
2023-04-05T19:56:28.408Z,82.70
2023-04-05T19:58:56.496Z,81.70
2023-04-05T20:01:36.784Z,81.30
2023-04-05T20:04:10.967Z,81.30
2023-04-05T20:06:39.046Z,81.80
2023-04-05T20:09:06.571Z,82.60
2023-04-05T20:11:33.932Z,83.20
2023-04-05T20:14:02.797Z,83.70
2023-04-05T20:16:30.748Z,83.70
2023-04-05T20:18:59.289Z,83.70
2023-04-05T20:21:26.993Z,83.70
2023-04-05T20:23:54.221Z,84.00
2023-04-05T20:26:28.246Z,84.10
2023-04-05T20:28:56.875Z,84.50
2023-04-05T20:31:25.471Z,84.60
2023-04-05T20:33:53.191Z,84.80
2023-04-05T20:36:21.376Z,84.90
2023-04-05T20:38:48.592Z,84.80
2023-04-05T20:41:16.913Z,84.70
2023-04-05T20:43:45.416Z,84.70
2023-04-05T20:46:12.912Z,84.70
2023-04-05T20:48:40.126Z,85.10
2023-04-05T20:51:07.628Z,86.20
2023-04-05T20:53:36.122Z,85.60
2023-04-05T20:56:03.886Z,85.90
2023-04-05T20:58:31.467Z,86.10
2023-04-05T21:01:02.758Z,86.00
2023-04-05T21:03:30.909Z,86.00
2023-04-05T21:05:58.454Z,86.20
2023-04-05T21:08:25.740Z,86.40
2023-04-05T21:10:53.929Z,86.30
2023-04-05T21:13:21.301Z,86.20
2023-04-05T21:15:48.615Z,86.40
2023-04-05T21:18:15.813Z,86.80
2023-04-05T21:20:50.197Z,87.30
2023-04-05T21:23:18.676Z,87.60
2023-04-05T21:25:46.858Z,87.90
2023-04-05T21:28:14.558Z,88.00
2023-04-05T21:30:41.743Z,87.90
2023-04-05T21:33:08.893Z,87.80
2023-04-05T21:35:36.093Z,87.90
2023-04-05T21:38:03.245Z,88.50
2023-04-05T21:40:30.388Z,88.60
2023-04-05T21:42:59.427Z,88.60
2023-04-05T21:45:26.569Z,89.00
2023-04-05T21:47:53.674Z,89.40
2023-04-05T21:50:20.980Z,89.50
2023-04-05T21:52:48.059Z,89.70
2023-04-05T21:55:15.220Z,90.00
2023-04-05T21:57:42.313Z,90.00
2023-04-05T22:00:11.783Z,90.10
2023-04-05T22:02:46.643Z,90.20
2023-04-05T22:05:22.240Z,90.30
2023-04-05T22:07:57.061Z,90.40
2023-04-05T22:10:24.981Z,90.40
2023-04-05T22:12:52.181Z,90.60
2023-04-05T22:15:19.243Z,90.80
2023-04-05T22:17:46.363Z,90.90
2023-04-05T22:20:13.493Z,91.00
2023-04-05T22:22:40.830Z,91.00
2023-04-05T22:25:08.924Z,91.10
2023-04-05T22:27:36.168Z,91.40
2023-04-05T22:30:04.730Z,91.50
2023-04-05T22:32:31.905Z,91.50
2023-04-05T22:34:59.007Z,91.60
2023-04-05T22:37:26.246Z,91.60
2023-04-05T22:39:53.335Z,91.60
2023-04-05T22:42:20.678Z,91.60
2023-04-05T22:44:47.794Z,91.60
2023-04-05T22:47:14.873Z,91.70
2023-04-05T22:49:42.030Z,91.80
2023-04-05T22:52:09.094Z,91.80
2023-04-05T22:54:36.177Z,91.90
2023-04-05T22:57:03.340Z,92.00
2023-04-05T22:59:30.435Z,92.00
2023-04-05T23:01:57.582Z,91.90
2023-04-05T23:04:24.652Z,91.80
2023-04-05T23:06:51.788Z,92.00
2023-04-05T23:09:18.854Z,92.00
2023-04-05T23:11:46.111Z,92.20
2023-04-05T23:14:13.161Z,92.40
2023-04-05T23:16:41.428Z,92.40
2023-04-05T23:19:08.718Z,92.30
2023-04-05T23:21:35.938Z,92.20
2023-04-05T23:24:03.093Z,92.40
2023-04-05T23:26:30.154Z,92.40
2023-04-05T23:28:57.242Z,92.40
2023-04-05T23:31:24.402Z,92.40
2023-04-05T23:33:51.644Z,92.40
2023-04-05T23:36:18.804Z,92.80
2023-04-05T23:38:46.010Z,92.50
2023-04-05T23:41:13.115Z,92.50
2023-04-05T23:43:40.234Z,92.50
2023-04-05T23:46:07.856Z,92.60
2023-04-05T23:48:35.026Z,93.00
2023-04-05T23:51:02.240Z,92.70
2023-04-05T23:53:29.342Z,92.80
2023-04-05T23:55:56.923Z,92.90
2023-04-05T23:58:24.091Z,92.90
